sensor_id;sensor_type;location;lat;lon;timestamp;pressure;altitude;pressure_sealevel;temperature;humidity
73516;BME280;61763;51.416;5.442;2022-10-17T00:01:11;101502.25;;;12.82;100.00
73516;BME280;61763;51.416;5.442;2022-10-17T00:03:37;101506.38;;;12.71;100.00
73516;BME280;61763;51.416;5.442;2022-10-17T00:06:09;101514.72;;;12.67;100.00
73516;BME280;61763;51.416;5.442;2022-10-17T00:08:35;101512.38;;;12.78;100.00
73516;BME280;61763;51.416;5.442;2022-10-17T00:11:04;101510.31;;;12.83;100.00
73516;BME280;61763;51.416;5.442;2022-10-17T00:13:30;101509.00;;;12.73;100.00
73516;BME280;61763;51.416;5.442;2022-10-17T00:15:56;101515.03;;;12.60;100.00
73516;BME280;61763;51.416;5.442;2022-10-17T00:18:22;101499.41;;;12.66;100.00
73516;BME280;61763;51.416;5.442;2022-10-17T00:20:48;101504.13;;;12.62;100.00
73516;BME280;61763;51.416;5.442;2022-10-17T00:23:13;101499.50;;;12.64;100.00
73516;BME280;61763;51.416;5.442;2022-10-17T00:25:38;101499.72;;;12.59;100.00
73516;BME280;61763;51.416;5.442;2022-10-17T00:28:05;101490.88;;;12.56;100.00
73516;BME280;61763;51.416;5.442;2022-10-17T00:30:32;101497.28;;;12.72;100.00
73516;BME280;61763;51.416;5.442;2022-10-17T00:32:57;101494.66;;;12.71;100.00
73516;BME280;61763;51.416;5.442;2022-10-17T00:35:23;101489.53;;;12.65;100.00
73516;BME280;61763;51.416;5.442;2022-10-17T00:37:48;101501.63;;;12.57;100.00
73516;BME280;61763;51.416;5.442;2022-10-17T00:40:13;101489.75;;;12.60;100.00
73516;BME280;61763;51.416;5.442;2022-10-17T00:42:39;101490.81;;;12.57;100.00
73516;BME280;61763;51.416;5.442;2022-10-17T00:45:27;101489.19;;;12.53;100.00
73516;BME280;61763;51.416;5.442;2022-10-17T00:47:59;101499.00;;;12.56;100.00
73516;BME280;61763;51.416;5.442;2022-10-17T00:50:28;101497.66;;;12.65;100.00
73516;BME280;61763;51.416;5.442;2022-10-17T00:52:56;101501.41;;;12.62;100.00
73516;BME280;61763;51.416;5.442;2022-10-17T00:55:30;101495.25;;;12.58;100.00
73516;BME280;61763;51.416;5.442;2022-10-17T00:57:57;101500.66;;;12.58;100.00
73516;BME280;61763;51.416;5.442;2022-10-17T01:00:24;101489.47;;;12.66;100.00
73516;BME280;61763;51.416;5.442;2022-10-17T01:02:50;101483.31;;;12.62;100.00
73516;BME280;61763;51.416;5.442;2022-10-17T01:05:17;101492.75;;;12.73;100.00
73516;BME280;61763;51.416;5.442;2022-10-17T01:07:43;101483.25;;;12.64;100.00
73516;BME280;61763;51.416;5.442;2022-10-17T01:10:10;101480.53;;;12.64;100.00
73516;BME280;61763;51.416;5.442;2022-10-17T01:20:40;101482.59;;;12.59;100.00
73516;BME280;61763;51.416;5.442;2022-10-17T01:26:24;101490.41;;;12.65;100.00
73516;BME280;61763;51.416;5.442;2022-10-17T01:29:22;101488.50;;;12.67;100.00
73516;BME280;61763;51.416;5.442;2022-10-17T01:32:00;101498.75;;;12.79;100.00
73516;BME280;61763;51.416;5.442;2022-10-17T01:39:52;101487.38;;;12.90;100.00
73516;BME280;61763;51.416;5.442;2022-10-17T01:42:34;101478.69;;;13.01;100.00
73516;BME280;61763;51.416;5.442;2022-10-17T01:47:45;101478.78;;;13.00;100.00
73516;BME280;61763;51.416;5.442;2022-10-17T01:50:23;101475.38;;;12.96;100.00
73516;BME280;61763;51.416;5.442;2022-10-17T01:52:53;101475.13;;;13.01;100.00
73516;BME280;61763;51.416;5.442;2022-10-17T01:55:27;101481.00;;;12.91;100.00
73516;BME280;61763;51.416;5.442;2022-10-17T01:58:00;101477.50;;;13.07;100.00
73516;BME280;61763;51.416;5.442;2022-10-17T02:00:29;101474.00;;;12.87;100.00
73516;BME280;61763;51.416;5.442;2022-10-17T02:03:02;101468.66;;;12.86;100.00
73516;BME280;61763;51.416;5.442;2022-10-17T02:05:31;101469.66;;;12.83;100.00
73516;BME280;61763;51.416;5.442;2022-10-17T02:07:58;101459.63;;;12.85;100.00
73516;BME280;61763;51.416;5.442;2022-10-17T02:10:39;101459.84;;;12.80;100.00
73516;BME280;61763;51.416;5.442;2022-10-17T02:27:43;101458.66;;;12.50;100.00
73516;BME280;61763;51.416;5.442;2022-10-17T02:32:52;101449.03;;;12.44;100.00
73516;BME280;61763;51.416;5.442;2022-10-17T02:35:21;101450.28;;;12.37;100.00
73516;BME280;61763;51.416;5.442;2022-10-17T02:37:50;101455.97;;;12.31;100.00
73516;BME280;61763;51.416;5.442;2022-10-17T02:40:17;101454.16;;;12.31;100.00
73516;BME280;61763;51.416;5.442;2022-10-17T02:42:45;101459.50;;;12.33;100.00
73516;BME280;61763;51.416;5.442;2022-10-17T02:45:11;101456.03;;;12.29;100.00
73516;BME280;61763;51.416;5.442;2022-10-17T02:48:11;101456.88;;;12.31;100.00
73516;BME280;61763;51.416;5.442;2022-10-17T02:53:45;101449.69;;;12.30;100.00
73516;BME280;61763;51.416;5.442;2022-10-17T02:56:18;101448.97;;;12.26;100.00
73516;BME280;61763;51.416;5.442;2022-10-17T02:58:53;101449.91;;;12.25;100.00
73516;BME280;61763;51.416;5.442;2022-10-17T03:01:21;101454.53;;;12.23;100.00
73516;BME280;61763;51.416;5.442;2022-10-17T03:03:47;101451.88;;;12.22;100.00
73516;BME280;61763;51.416;5.442;2022-10-17T03:06:12;101443.03;;;12.18;100.00
73516;BME280;61763;51.416;5.442;2022-10-17T03:08:38;101458.41;;;12.18;100.00
73516;BME280;61763;51.416;5.442;2022-10-17T03:11:03;101450.06;;;12.22;100.00
73516;BME280;61763;51.416;5.442;2022-10-17T03:13:29;101450.63;;;12.29;100.00
73516;BME280;61763;51.416;5.442;2022-10-17T03:15:55;101453.13;;;12.34;100.00
73516;BME280;61763;51.416;5.442;2022-10-17T03:18:20;101457.44;;;12.38;100.00
73516;BME280;61763;51.416;5.442;2022-10-17T03:20:46;101456.34;;;12.42;100.00
73516;BME280;61763;51.416;5.442;2022-10-17T03:23:11;101464.16;;;12.48;100.00
73516;BME280;61763;51.416;5.442;2022-10-17T03:25:36;101463.72;;;12.57;100.00
73516;BME280;61763;51.416;5.442;2022-10-17T03:28:02;101462.03;;;12.55;100.00
73516;BME280;61763;51.416;5.442;2022-10-17T03:30:29;101463.25;;;12.67;100.00
73516;BME280;61763;51.416;5.442;2022-10-17T03:32:58;101467.66;;;12.69;100.00
73516;BME280;61763;51.416;5.442;2022-10-17T03:35:24;101458.31;;;12.75;100.00
73516;BME280;61763;51.416;5.442;2022-10-17T03:37:50;101459.16;;;12.77;100.00
73516;BME280;61763;51.416;5.442;2022-10-17T03:40:15;101457.22;;;12.79;100.00
73516;BME280;61763;51.416;5.442;2022-10-17T03:42:41;101452.56;;;12.83;100.00
73516;BME280;61763;51.416;5.442;2022-10-17T03:45:06;101448.09;;;12.82;100.00
73516;BME280;61763;51.416;5.442;2022-10-17T03:47:32;101448.25;;;12.78;100.00
73516;BME280;61763;51.416;5.442;2022-10-17T03:49:57;101449.09;;;12.79;100.00
73516;BME280;61763;51.416;5.442;2022-10-17T03:52:23;101461.69;;;12.80;100.00
73516;BME280;61763;51.416;5.442;2022-10-17T03:54:49;101459.94;;;12.79;100.00
73516;BME280;61763;51.416;5.442;2022-10-17T03:57:15;101459.06;;;12.78;100.00
73516;BME280;61763;51.416;5.442;2022-10-17T03:59:40;101457.16;;;12.80;100.00
73516;BME280;61763;51.416;5.442;2022-10-17T04:02:06;101464.25;;;12.83;100.00
73516;BME280;61763;51.416;5.442;2022-10-17T04:04:31;101457.97;;;12.83;100.00
73516;BME280;61763;51.416;5.442;2022-10-17T04:06:56;101466.75;;;13.05;100.00
73516;BME280;61763;51.416;5.442;2022-10-17T04:09:22;101469.97;;;13.13;100.00
73516;BME280;61763;51.416;5.442;2022-10-17T04:11:47;101472.03;;;13.26;100.00
73516;BME280;61763;51.416;5.442;2022-10-17T04:14:13;101470.72;;;13.35;100.00
73516;BME280;61763;51.416;5.442;2022-10-17T04:16:38;101467.50;;;13.44;100.00
73516;BME280;61763;51.416;5.442;2022-10-17T04:19:04;101459.53;;;13.41;100.00
73516;BME280;61763;51.416;5.442;2022-10-17T04:21:29;101475.34;;;13.50;100.00
73516;BME280;61763;51.416;5.442;2022-10-17T04:23:56;101478.94;;;13.51;100.00
73516;BME280;61763;51.416;5.442;2022-10-17T04:26:22;101474.28;;;13.70;100.00
73516;BME280;61763;51.416;5.442;2022-10-17T04:28:48;101478.75;;;13.71;100.00
73516;BME280;61763;51.416;5.442;2022-10-17T04:31:13;101481.53;;;13.70;100.00
73516;BME280;61763;51.416;5.442;2022-10-17T04:33:40;101484.69;;;13.78;100.00
73516;BME280;61763;51.416;5.442;2022-10-17T04:36:09;101484.41;;;13.84;100.00
73516;BME280;61763;51.416;5.442;2022-10-17T04:38:35;101484.47;;;13.82;100.00
73516;BME280;61763;51.416;5.442;2022-10-17T04:41:02;101482.63;;;13.83;100.00
73516;BME280;61763;51.416;5.442;2022-10-17T04:43:29;101495.56;;;13.78;100.00
73516;BME280;61763;51.416;5.442;2022-10-17T04:45:59;101493.16;;;13.72;100.00
73516;BME280;61763;51.416;5.442;2022-10-17T04:48:26;101496.38;;;13.62;100.00
73516;BME280;61763;51.416;5.442;2022-10-17T04:50:56;101496.13;;;13.67;100.00
73516;BME280;61763;51.416;5.442;2022-10-17T04:53:22;101506.81;;;13.70;100.00
73516;BME280;61763;51.416;5.442;2022-10-17T04:55:48;101516.72;;;13.71;100.00
73516;BME280;61763;51.416;5.442;2022-10-17T04:58:14;101513.94;;;13.73;100.00
73516;BME280;61763;51.416;5.442;2022-10-17T05:00:40;101514.72;;;13.75;100.00
73516;BME280;61763;51.416;5.442;2022-10-17T05:03:05;101517.97;;;13.99;100.00
73516;BME280;61763;51.416;5.442;2022-10-17T05:05:31;101519.25;;;13.92;100.00
73516;BME280;61763;51.416;5.442;2022-10-17T05:07:56;101522.13;;;13.89;100.00
73516;BME280;61763;51.416;5.442;2022-10-17T05:10:22;101520.53;;;13.84;100.00
73516;BME280;61763;51.416;5.442;2022-10-17T05:12:48;101516.88;;;13.86;100.00
73516;BME280;61763;51.416;5.442;2022-10-17T05:15:14;101518.31;;;13.75;100.00
73516;BME280;61763;51.416;5.442;2022-10-17T05:17:39;101525.19;;;13.82;100.00
73516;BME280;61763;51.416;5.442;2022-10-17T05:20:05;101526.22;;;13.80;100.00
73516;BME280;61763;51.416;5.442;2022-10-17T05:22:31;101518.06;;;13.80;100.00
73516;BME280;61763;51.416;5.442;2022-10-17T05:24:56;101521.53;;;13.99;100.00
73516;BME280;61763;51.416;5.442;2022-10-17T05:27:21;101525.72;;;13.89;100.00
73516;BME280;61763;51.416;5.442;2022-10-17T05:29:47;101531.91;;;13.91;100.00
73516;BME280;61763;51.416;5.442;2022-10-17T05:32:14;101523.66;;;13.94;100.00
73516;BME280;61763;51.416;5.442;2022-10-17T05:34:39;101542.56;;;13.96;100.00
73516;BME280;61763;51.416;5.442;2022-10-17T05:37:05;101538.59;;;14.01;100.00
73516;BME280;61763;51.416;5.442;2022-10-17T05:39:30;101541.00;;;14.08;100.00
73516;BME280;61763;51.416;5.442;2022-10-17T05:41:55;101546.53;;;14.06;100.00
73516;BME280;61763;51.416;5.442;2022-10-17T05:44:21;101543.97;;;14.03;100.00
73516;BME280;61763;51.416;5.442;2022-10-17T05:46:49;101547.41;;;14.07;100.00
73516;BME280;61763;51.416;5.442;2022-10-17T05:49:15;101542.81;;;14.07;100.00
73516;BME280;61763;51.416;5.442;2022-10-17T05:51:41;101557.38;;;14.06;100.00
73516;BME280;61763;51.416;5.442;2022-10-17T05:54:06;101547.81;;;13.99;100.00
73516;BME280;61763;51.416;5.442;2022-10-17T05:56:33;101546.22;;;13.95;100.00
73516;BME280;61763;51.416;5.442;2022-10-17T05:58:59;101551.00;;;13.90;100.00
73516;BME280;61763;51.416;5.442;2022-10-17T06:01:24;101544.31;;;13.79;100.00
73516;BME280;61763;51.416;5.442;2022-10-17T06:03:49;101548.06;;;13.77;100.00
73516;BME280;61763;51.416;5.442;2022-10-17T06:06:16;101554.53;;;13.74;100.00
73516;BME280;61763;51.416;5.442;2022-10-17T06:08:42;101556.28;;;13.75;100.00
73516;BME280;61763;51.416;5.442;2022-10-17T06:11:08;101549.72;;;13.79;100.00
73516;BME280;61763;51.416;5.442;2022-10-17T06:13:33;101550.78;;;13.77;100.00
73516;BME280;61763;51.416;5.442;2022-10-17T06:15:58;101557.88;;;13.79;100.00
73516;BME280;61763;51.416;5.442;2022-10-17T06:18:24;101554.84;;;13.86;100.00
73516;BME280;61763;51.416;5.442;2022-10-17T06:20:50;101555.31;;;13.94;100.00
73516;BME280;61763;51.416;5.442;2022-10-17T06:23:16;101551.47;;;13.98;100.00
73516;BME280;61763;51.416;5.442;2022-10-17T06:25:41;101555.63;;;14.05;100.00
73516;BME280;61763;51.416;5.442;2022-10-17T06:28:07;101553.31;;;14.15;100.00
73516;BME280;61763;51.416;5.442;2022-10-17T06:30:32;101562.44;;;14.30;100.00
73516;BME280;61763;51.416;5.442;2022-10-17T06:32:58;101562.28;;;14.33;100.00
73516;BME280;61763;51.416;5.442;2022-10-17T06:35:23;101563.78;;;14.39;100.00
73516;BME280;61763;51.416;5.442;2022-10-17T06:37:48;101559.22;;;14.39;100.00
73516;BME280;61763;51.416;5.442;2022-10-17T06:40:14;101571.50;;;14.46;100.00
73516;BME280;61763;51.416;5.442;2022-10-17T06:42:41;101576.50;;;14.54;100.00
73516;BME280;61763;51.416;5.442;2022-10-17T06:45:07;101564.69;;;14.55;100.00
73516;BME280;61763;51.416;5.442;2022-10-17T06:47:33;101569.63;;;14.80;100.00
73516;BME280;61763;51.416;5.442;2022-10-17T06:49:59;101578.06;;;14.76;100.00
73516;BME280;61763;51.416;5.442;2022-10-17T06:52:24;101577.88;;;14.79;100.00
73516;BME280;61763;51.416;5.442;2022-10-17T06:54:50;101579.56;;;14.97;100.00
73516;BME280;61763;51.416;5.442;2022-10-17T06:57:18;101573.13;;;14.98;100.00
73516;BME280;61763;51.416;5.442;2022-10-17T06:59:43;101568.50;;;15.00;100.00
73516;BME280;61763;51.416;5.442;2022-10-17T07:02:12;101572.94;;;15.17;100.00
73516;BME280;61763;51.416;5.442;2022-10-17T07:04:37;101572.84;;;15.19;100.00
73516;BME280;61763;51.416;5.442;2022-10-17T07:07:03;101579.78;;;15.24;100.00
73516;BME280;61763;51.416;5.442;2022-10-17T07:09:30;101586.72;;;15.30;100.00
73516;BME280;61763;51.416;5.442;2022-10-17T07:11:55;101590.47;;;15.28;100.00
73516;BME280;61763;51.416;5.442;2022-10-17T07:14:21;101597.41;;;15.33;100.00
73516;BME280;61763;51.416;5.442;2022-10-17T07:16:47;101597.78;;;15.57;100.00
73516;BME280;61763;51.416;5.442;2022-10-17T07:19:12;101587.56;;;15.47;100.00
73516;BME280;61763;51.416;5.442;2022-10-17T07:21:38;101597.03;;;15.55;100.00
73516;BME280;61763;51.416;5.442;2022-10-17T07:24:04;101612.78;;;15.65;100.00
73516;BME280;61763;51.416;5.442;2022-10-17T07:26:31;101604.63;;;15.65;100.00
73516;BME280;61763;51.416;5.442;2022-10-17T07:28:56;101608.72;;;15.72;100.00
73516;BME280;61763;51.416;5.442;2022-10-17T07:31:22;101621.75;;;15.67;100.00
73516;BME280;61763;51.416;5.442;2022-10-17T07:33:48;101630.09;;;15.64;100.00
73516;BME280;61763;51.416;5.442;2022-10-17T07:36:14;101632.88;;;15.78;100.00
73516;BME280;61763;51.416;5.442;2022-10-17T07:38:40;101644.47;;;15.66;100.00
73516;BME280;61763;51.416;5.442;2022-10-17T07:41:07;101659.94;;;15.81;100.00
73516;BME280;61763;51.416;5.442;2022-10-17T07:43:33;101674.56;;;15.94;100.00
73516;BME280;61763;51.416;5.442;2022-10-17T07:46:01;101694.06;;;15.87;100.00
73516;BME280;61763;51.416;5.442;2022-10-17T07:48:27;101691.06;;;15.91;100.00
73516;BME280;61763;51.416;5.442;2022-10-17T07:50:52;101695.50;;;16.08;100.00
73516;BME280;61763;51.416;5.442;2022-10-17T07:53:18;101703.97;;;16.04;100.00
73516;BME280;61763;51.416;5.442;2022-10-17T07:55:44;101716.63;;;16.19;100.00
73516;BME280;61763;51.416;5.442;2022-10-17T07:58:11;101704.78;;;16.20;100.00
73516;BME280;61763;51.416;5.442;2022-10-17T08:00:37;101714.66;;;16.37;100.00
73516;BME280;61763;51.416;5.442;2022-10-17T08:03:03;101716.81;;;16.46;100.00
73516;BME280;61763;51.416;5.442;2022-10-17T08:05:29;101728.28;;;16.52;100.00
73516;BME280;61763;51.416;5.442;2022-10-17T08:07:54;101736.22;;;16.56;100.00
73516;BME280;61763;51.416;5.442;2022-10-17T08:10:20;101736.38;;;16.53;100.00
73516;BME280;61763;51.416;5.442;2022-10-17T08:12:47;101739.63;;;16.60;100.00
73516;BME280;61763;51.416;5.442;2022-10-17T08:15:12;101747.22;;;16.69;100.00
73516;BME280;61763;51.416;5.442;2022-10-17T08:17:38;101766.81;;;16.76;100.00
73516;BME280;61763;51.416;5.442;2022-10-17T08:20:04;101759.47;;;16.62;100.00
73516;BME280;61763;51.416;5.442;2022-10-17T08:22:31;101774.72;;;16.50;100.00
73516;BME280;61763;51.416;5.442;2022-10-17T08:24:56;101764.13;;;16.60;100.00
73516;BME280;61763;51.416;5.442;2022-10-17T08:27:22;101773.66;;;16.53;100.00
73516;BME280;61763;51.416;5.442;2022-10-17T08:29:50;101781.69;;;16.40;100.00
73516;BME280;61763;51.416;5.442;2022-10-17T08:32:23;101790.84;;;16.39;100.00
73516;BME280;61763;51.416;5.442;2022-10-17T08:34:50;101786.38;;;16.38;100.00
73516;BME280;61763;51.416;5.442;2022-10-17T08:37:15;101783.34;;;16.42;100.00
73516;BME280;61763;51.416;5.442;2022-10-17T08:39:41;101791.25;;;16.47;100.00
73516;BME280;61763;51.416;5.442;2022-10-17T08:45:22;101800.75;;;16.70;100.00
73516;BME280;61763;51.416;5.442;2022-10-17T08:47:52;101782.25;;;16.61;100.00
73516;BME280;61763;51.416;5.442;2022-10-17T08:58:06;101781.34;;;16.60;100.00
73516;BME280;61763;51.416;5.442;2022-10-17T09:00:36;101791.00;;;16.66;100.00
73516;BME280;61763;51.416;5.442;2022-10-17T09:19:34;101907.81;;;16.26;100.00
73516;BME280;61763;51.416;5.442;2022-10-17T09:22:08;101896.28;;;16.21;100.00
73516;BME280;61763;51.416;5.442;2022-10-17T09:24:40;101810.50;;;15.98;100.00
73516;BME280;61763;51.416;5.442;2022-10-17T09:27:32;101804.03;;;15.84;100.00
73516;BME280;61763;51.416;5.442;2022-10-17T09:33:10;101774.63;;;15.73;100.00
73516;BME280;61763;51.416;5.442;2022-10-17T09:35:36;101781.06;;;15.72;100.00
73516;BME280;61763;51.416;5.442;2022-10-17T09:38:02;101788.25;;;15.73;100.00
73516;BME280;61763;51.416;5.442;2022-10-17T09:40:32;101805.78;;;15.68;100.00
73516;BME280;61763;51.416;5.442;2022-10-17T09:43:00;101805.88;;;15.66;100.00
73516;BME280;61763;51.416;5.442;2022-10-17T09:45:27;101817.41;;;15.71;100.00
73516;BME280;61763;51.416;5.442;2022-10-17T09:50:32;101831.84;;;15.89;100.00
73516;BME280;61763;51.416;5.442;2022-10-17T09:53:02;101838.88;;;15.93;100.00
73516;BME280;61763;51.416;5.442;2022-10-17T09:55:41;101827.34;;;15.88;100.00
73516;BME280;61763;51.416;5.442;2022-10-17T09:58:08;101806.56;;;15.87;100.00
73516;BME280;61763;51.416;5.442;2022-10-17T10:03:19;101802.59;;;15.93;100.00
73516;BME280;61763;51.416;5.442;2022-10-17T10:08:27;101809.19;;;16.05;100.00
73516;BME280;61763;51.416;5.442;2022-10-17T10:10:58;101815.59;;;16.04;100.00
73516;BME280;61763;51.416;5.442;2022-10-17T10:13:26;101826.22;;;16.08;100.00
73516;BME280;61763;51.416;5.442;2022-10-17T10:15:52;101807.41;;;16.04;100.00
73516;BME280;61763;51.416;5.442;2022-10-17T10:18:35;101831.13;;;16.02;100.00
73516;BME280;61763;51.416;5.442;2022-10-17T10:23:31;101854.84;;;16.00;100.00
73516;BME280;61763;51.416;5.442;2022-10-17T10:26:01;101861.25;;;15.99;100.00
73516;BME280;61763;51.416;5.442;2022-10-17T10:28:33;101854.94;;;15.98;100.00
73516;BME280;61763;51.416;5.442;2022-10-17T10:31:04;101851.06;;;16.02;100.00
73516;BME280;61763;51.416;5.442;2022-10-17T10:33:32;101853.34;;;16.10;100.00
73516;BME280;61763;51.416;5.442;2022-10-17T10:36:01;101855.34;;;16.22;100.00
73516;BME280;61763;51.416;5.442;2022-10-17T10:38:28;101870.81;;;16.38;100.00
73516;BME280;61763;51.416;5.442;2022-10-17T10:40:56;101880.38;;;16.45;100.00
73516;BME280;61763;51.416;5.442;2022-10-17T10:43:33;101888.88;;;16.55;100.00
73516;BME280;61763;51.416;5.442;2022-10-17T10:46:01;101910.69;;;16.55;100.00
73516;BME280;61763;51.416;5.442;2022-10-17T10:48:33;101918.44;;;16.46;100.00
73516;BME280;61763;51.416;5.442;2022-10-17T10:51:03;101916.06;;;16.40;100.00
73516;BME280;61763;51.416;5.442;2022-10-17T10:56:17;101901.56;;;16.40;100.00
73516;BME280;61763;51.416;5.442;2022-10-17T10:58:57;101893.81;;;16.48;100.00
73516;BME280;61763;51.416;5.442;2022-10-17T11:06:44;101920.06;;;16.65;100.00
73516;BME280;61763;51.416;5.442;2022-10-17T11:09:31;101913.47;;;16.69;100.00
73516;BME280;61763;51.416;5.442;2022-10-17T11:14:39;101922.72;;;16.67;100.00
73516;BME280;61763;51.416;5.442;2022-10-17T11:19:40;101930.19;;;16.63;100.00
73516;BME280;61763;51.416;5.442;2022-10-17T11:22:15;101935.13;;;16.56;100.00
73516;BME280;61763;51.416;5.442;2022-10-17T11:27:29;101943.47;;;16.53;100.00
73516;BME280;61763;51.416;5.442;2022-10-17T11:29:55;101944.53;;;16.51;100.00
73516;BME280;61763;51.416;5.442;2022-10-17T11:32:37;101950.00;;;16.51;100.00
73516;BME280;61763;51.416;5.442;2022-10-17T11:35:15;101959.13;;;16.50;100.00
73516;BME280;61763;51.416;5.442;2022-10-17T11:37:50;101955.00;;;16.58;100.00
73516;BME280;61763;51.416;5.442;2022-10-17T11:43:00;101959.22;;;16.48;100.00
73516;BME280;61763;51.416;5.442;2022-10-17T11:45:29;101970.13;;;16.48;100.00
73516;BME280;61763;51.416;5.442;2022-10-17T11:50:29;101973.28;;;16.40;100.00
73516;BME280;61763;51.416;5.442;2022-10-17T11:55:29;101974.94;;;16.43;100.00
73516;BME280;61763;51.416;5.442;2022-10-17T12:03:18;101981.63;;;16.37;100.00
73516;BME280;61763;51.416;5.442;2022-10-17T12:06:07;101987.78;;;16.41;100.00
73516;BME280;61763;51.416;5.442;2022-10-17T12:13:51;101997.53;;;16.45;100.00
73516;BME280;61763;51.416;5.442;2022-10-17T12:18:43;101984.09;;;16.58;100.00
73516;BME280;61763;51.416;5.442;2022-10-17T12:21:09;101998.22;;;16.64;100.00
73516;BME280;61763;51.416;5.442;2022-10-17T12:23:34;101989.00;;;16.67;100.00
73516;BME280;61763;51.416;5.442;2022-10-17T12:26:05;101982.41;;;16.71;100.00
73516;BME280;61763;51.416;5.442;2022-10-17T12:28:45;101994.22;;;16.88;100.00
73516;BME280;61763;51.416;5.442;2022-10-17T12:38:49;102001.81;;;17.43;100.00
73516;BME280;61763;51.416;5.442;2022-10-17T12:41:14;102001.25;;;17.52;100.00
73516;BME280;61763;51.416;5.442;2022-10-17T12:46:10;102005.38;;;17.29;100.00
73516;BME280;61763;51.416;5.442;2022-10-17T12:54:01;102019.72;;;17.33;100.00
73516;BME280;61763;51.416;5.442;2022-10-17T12:58:59;102020.34;;;17.22;100.00
73516;BME280;61763;51.416;5.442;2022-10-17T13:01:30;102030.97;;;17.27;100.00
73516;BME280;61763;51.416;5.442;2022-10-17T13:03:58;102021.88;;;17.42;100.00
73516;BME280;61763;51.416;5.442;2022-10-17T13:06:31;102013.50;;;17.45;100.00
73516;BME280;61763;51.416;5.442;2022-10-17T13:09:07;102015.09;;;17.49;100.00
73516;BME280;61763;51.416;5.442;2022-10-17T13:11:39;102011.19;;;17.54;100.00
73516;BME280;61763;51.416;5.442;2022-10-17T13:14:11;102018.03;;;17.61;100.00
73516;BME280;61763;51.416;5.442;2022-10-17T13:19:20;102030.84;;;17.44;100.00
73516;BME280;61763;51.416;5.442;2022-10-17T13:21:54;102043.28;;;17.34;100.00
73516;BME280;61763;51.416;5.442;2022-10-17T13:26:52;102047.19;;;17.30;100.00
73516;BME280;61763;51.416;5.442;2022-10-17T13:29:17;102054.66;;;17.26;100.00
73516;BME280;61763;51.416;5.442;2022-10-17T13:31:57;102055.72;;;17.24;100.00
73516;BME280;61763;51.416;5.442;2022-10-17T13:34:25;102062.38;;;17.34;100.00
73516;BME280;61763;51.416;5.442;2022-10-17T13:36:53;102067.63;;;17.23;100.00
73516;BME280;61763;51.416;5.442;2022-10-17T13:39:21;102073.84;;;17.25;100.00
73516;BME280;61763;51.416;5.442;2022-10-17T13:41:48;102076.03;;;17.18;100.00
73516;BME280;61763;51.416;5.442;2022-10-17T13:44:17;102076.84;;;17.20;100.00
73516;BME280;61763;51.416;5.442;2022-10-17T13:46:44;102080.34;;;17.22;100.00
73516;BME280;61763;51.416;5.442;2022-10-17T13:51:50;102073.84;;;17.25;100.00
73516;BME280;61763;51.416;5.442;2022-10-17T13:56:58;102092.50;;;17.16;100.00
73516;BME280;61763;51.416;5.442;2022-10-17T13:59:36;102095.00;;;17.21;100.00
73516;BME280;61763;51.416;5.442;2022-10-17T14:02:02;102107.38;;;17.27;100.00
73516;BME280;61763;51.416;5.442;2022-10-17T14:04:27;102109.94;;;17.30;100.00
73516;BME280;61763;51.416;5.442;2022-10-17T14:06:53;102110.53;;;17.35;100.00
73516;BME280;61763;51.416;5.442;2022-10-17T14:09:27;102114.56;;;17.44;100.00
73516;BME280;61763;51.416;5.442;2022-10-17T14:12:10;102113.59;;;17.45;100.00
73516;BME280;61763;51.416;5.442;2022-10-17T14:14:46;102122.22;;;17.37;100.00
73516;BME280;61763;51.416;5.442;2022-10-17T14:17:13;102130.16;;;17.42;100.00
73516;BME280;61763;51.416;5.442;2022-10-17T14:19:39;102129.72;;;17.33;100.00
73516;BME280;61763;51.416;5.442;2022-10-17T14:22:16;102131.81;;;17.28;100.00
73516;BME280;61763;51.416;5.442;2022-10-17T14:24:43;102139.31;;;17.41;100.00
73516;BME280;61763;51.416;5.442;2022-10-17T14:29:56;102139.91;;;17.46;100.00
73516;BME280;61763;51.416;5.442;2022-10-17T14:32:27;102137.22;;;17.30;100.00
73516;BME280;61763;51.416;5.442;2022-10-17T14:34:54;102142.75;;;17.28;100.00
73516;BME280;61763;51.416;5.442;2022-10-17T14:37:46;102144.09;;;17.21;100.00
73516;BME280;61763;51.416;5.442;2022-10-17T14:40:21;102133.00;;;17.24;100.00
73516;BME280;61763;51.416;5.442;2022-10-17T14:42:58;102138.09;;;17.14;100.00
73516;BME280;61763;51.416;5.442;2022-10-17T14:45:36;102126.31;;;17.14;100.00
73516;BME280;61763;51.416;5.442;2022-10-17T14:48:10;102132.28;;;17.21;100.00
73516;BME280;61763;51.416;5.442;2022-10-17T14:50:36;102136.50;;;17.10;100.00
73516;BME280;61763;51.416;5.442;2022-10-17T14:55:29;102126.69;;;17.08;100.00
73516;BME280;61763;51.416;5.442;2022-10-17T14:57:54;102135.72;;;17.08;100.00
73516;BME280;61763;51.416;5.442;2022-10-17T15:00:21;102132.47;;;17.02;100.00
73516;BME280;61763;51.416;5.442;2022-10-17T15:02:48;102128.00;;;17.01;100.00
73516;BME280;61763;51.416;5.442;2022-10-17T15:05:14;102129.81;;;17.00;100.00
73516;BME280;61763;51.416;5.442;2022-10-17T15:07:41;102139.84;;;16.99;100.00
73516;BME280;61763;51.416;5.442;2022-10-17T15:10:27;102146.63;;;16.92;100.00
73516;BME280;61763;51.416;5.442;2022-10-17T15:12:53;102149.53;;;16.89;100.00
73516;BME280;61763;51.416;5.442;2022-10-17T15:15:18;102153.13;;;16.90;100.00
73516;BME280;61763;51.416;5.442;2022-10-17T15:17:43;102153.22;;;16.88;100.00